createdAt,value
2018-08-22T00:01:03.186Z,34.07
2018-08-22T00:03:32.284Z,35.43
2018-08-22T00:06:01.433Z,34.70
2018-08-22T00:08:35.883Z,32.20
2018-08-22T00:11:05.026Z,33.67
2018-08-22T00:13:34.058Z,35.47
2018-08-22T00:16:03.190Z,33.47
2018-08-22T00:18:32.225Z,35.43
2018-08-22T00:21:01.458Z,35.43
2018-08-22T00:23:30.349Z,37.53
2018-08-22T00:25:59.375Z,36.23
2018-08-22T00:28:28.361Z,37.10
2018-08-22T00:30:57.472Z,35.50
2018-08-22T00:33:26.449Z,37.00
2018-08-22T00:35:55.441Z,37.93
2018-08-22T00:38:24.554Z,35.33
2018-08-22T00:40:53.735Z,36.53
2018-08-22T00:43:22.816Z,36.40
2018-08-22T00:45:51.926Z,38.50
2018-08-22T00:48:21.020Z,36.10
2018-08-22T00:50:50.151Z,39.67
2018-08-22T00:53:19.213Z,39.03
2018-08-22T00:55:48.321Z,37.30
2018-08-22T00:58:17.407Z,38.97
2018-08-22T01:00:46.518Z,38.40
2018-08-22T01:03:15.599Z,37.07
2018-08-22T01:05:44.699Z,34.60
2018-08-22T01:08:13.785Z,37.80
2018-08-22T01:10:42.886Z,36.77
2018-08-22T01:13:12.133Z,35.90
2018-08-22T01:15:41.193Z,37.97
2018-08-22T01:18:10.297Z,36.33
2018-08-22T01:20:39.365Z,35.47
2018-08-22T01:23:08.443Z,36.20
2018-08-22T01:25:37.445Z,37.87
2018-08-22T01:28:06.655Z,36.03
2018-08-22T01:30:35.753Z,37.40
2018-08-22T01:33:04.783Z,37.20
2018-08-22T01:35:33.789Z,36.03
2018-08-22T01:38:02.827Z,35.97
2018-08-22T01:40:31.865Z,35.53
2018-08-22T01:43:00.909Z,39.30
2018-08-22T01:45:29.915Z,37.30
2018-08-22T01:47:59.007Z,35.70
2018-08-22T01:50:28.117Z,36.13
2018-08-22T01:52:57.189Z,36.83
2018-08-22T01:55:26.276Z,37.70
2018-08-22T01:57:55.378Z,37.83
2018-08-22T02:00:24.543Z,36.20
2018-08-22T02:02:53.553Z,37.43
2018-08-22T02:05:22.613Z,38.07
2018-08-22T02:07:51.775Z,38.80
2018-08-22T02:10:20.876Z,36.83
2018-08-22T02:12:49.968Z,36.87
2018-08-22T02:15:19.029Z,34.77
2018-08-22T02:17:48.030Z,34.20
2018-08-22T02:20:17.254Z,33.83
2018-08-22T02:22:46.393Z,33.23
2018-08-22T02:25:15.532Z,34.13
2018-08-22T02:27:44.436Z,35.47
2018-08-22T02:30:13.528Z,34.87
2018-08-22T02:32:42.619Z,36.47
2018-08-22T02:35:11.719Z,35.07
2018-08-22T02:37:40.789Z,36.17
2018-08-22T02:40:09.818Z,37.30
2018-08-22T02:42:38.830Z,37.57
2018-08-22T02:45:07.922Z,36.73
2018-08-22T02:47:36.952Z,36.90
2018-08-22T02:50:06.126Z,38.57
2018-08-22T02:52:35.228Z,36.70
2018-08-22T02:55:04.285Z,39.37
2018-08-22T02:57:33.412Z,38.93
2018-08-22T03:00:02.422Z,38.07
2018-08-22T03:02:31.572Z,39.40
2018-08-22T03:05:00.634Z,41.87
2018-08-22T03:07:29.692Z,42.17
2018-08-22T03:09:58.736Z,40.63
2018-08-22T03:12:27.862Z,41.33
2018-08-22T03:14:56.918Z,40.93
2018-08-22T03:17:25.908Z,40.47
2018-08-22T03:19:54.951Z,41.87
2018-08-22T03:22:24.033Z,42.27
2018-08-22T03:24:53.106Z,42.20
2018-08-22T03:27:22.188Z,38.60
2018-08-22T03:29:51.374Z,41.40
2018-08-22T03:32:20.430Z,41.63
2018-08-22T03:34:49.498Z,44.07
2018-08-22T03:37:18.610Z,41.30
2018-08-22T03:39:47.694Z,41.23
2018-08-22T03:42:17.846Z,43.47
2018-08-22T03:44:46.885Z,40.93
2018-08-22T03:47:15.912Z,42.30
2018-08-22T03:49:45.058Z,44.83
2018-08-22T03:52:14.167Z,43.20
2018-08-22T03:54:43.296Z,42.57
2018-08-22T03:57:12.449Z,43.80
2018-08-22T03:59:41.528Z,47.67
2018-08-22T04:02:10.678Z,45.50
2018-08-22T04:04:39.694Z,45.13
2018-08-22T04:07:08.816Z,44.73
2018-08-22T04:09:37.896Z,46.63
2018-08-22T04:12:06.995Z,45.60
2018-08-22T04:14:36.112Z,42.37
2018-08-22T04:17:05.558Z,44.33
2018-08-22T04:19:34.617Z,47.93
2018-08-22T04:22:03.690Z,44.33
2018-08-22T04:24:32.753Z,46.93
2018-08-22T04:27:01.792Z,45.50
2018-08-22T04:29:30.912Z,45.03
2018-08-22T04:31:59.962Z,47.80
2018-08-22T04:34:28.950Z,45.20
2018-08-22T04:36:58.077Z,45.83
2018-08-22T04:39:27.228Z,46.63
2018-08-22T04:41:56.258Z,47.40
2018-08-22T04:44:25.519Z,46.13
2018-08-22T04:46:54.674Z,44.23
2018-08-22T04:49:23.724Z,43.43
2018-08-22T04:51:52.805Z,43.33
2018-08-22T04:54:21.997Z,44.63
2018-08-22T04:56:51.219Z,41.30
2018-08-22T04:59:20.235Z,45.67
2018-08-22T05:01:49.763Z,43.57
2018-08-22T05:04:19.203Z,46.17
2018-08-22T05:06:48.389Z,48.00
2018-08-22T05:09:17.461Z,42.17
2018-08-22T05:11:47.495Z,41.57
2018-08-22T05:14:16.610Z,43.30
2018-08-22T05:16:45.633Z,44.27
2018-08-22T05:19:14.681Z,42.67
2018-08-22T05:21:43.657Z,43.13
2018-08-22T05:24:12.824Z,40.93
2018-08-22T05:26:41.995Z,39.87
2018-08-22T05:29:11.475Z,42.10
2018-08-22T05:31:40.484Z,41.80
2018-08-22T05:34:09.661Z,39.97
2018-08-22T05:36:38.837Z,39.60
2018-08-22T05:39:10.861Z,38.30
2018-08-22T05:41:40.243Z,37.47
2018-08-22T05:44:09.791Z,37.00
2018-08-22T05:46:38.773Z,35.20
2018-08-22T05:49:08.359Z,38.10
2018-08-22T05:51:37.494Z,34.60
2018-08-22T05:54:06.749Z,36.50
2018-08-22T05:56:35.837Z,32.83
2018-08-22T05:59:05.029Z,33.87
2018-08-22T06:01:34.153Z,32.57
2018-08-22T06:04:03.205Z,32.37
2018-08-22T06:06:32.535Z,31.00
2018-08-22T06:09:02.559Z,31.63
2018-08-22T06:11:31.705Z,30.83
2018-08-22T06:14:00.757Z,30.40
2018-08-22T06:16:31.261Z,31.47
2018-08-22T06:19:00.395Z,30.80
2018-08-22T06:21:29.435Z,30.30
2018-08-22T06:23:58.466Z,31.47
2018-08-22T06:26:27.657Z,29.53
2018-08-22T06:28:56.747Z,28.37
2018-08-22T06:31:25.847Z,31.47
2018-08-22T06:33:54.992Z,29.37
2018-08-22T06:36:24.187Z,28.17
2018-08-22T06:38:53.140Z,27.23
2018-08-22T06:41:22.225Z,26.77
2018-08-22T06:43:51.325Z,26.27
2018-08-22T06:46:20.334Z,25.67
2018-08-22T06:48:49.400Z,24.53
2018-08-22T06:51:18.573Z,23.03
2018-08-22T06:53:47.653Z,18.90
2018-08-22T06:56:16.777Z,19.10
2018-08-22T06:58:45.805Z,17.57
2018-08-22T07:01:14.901Z,17.33
2018-08-22T07:03:43.975Z,16.43
2018-08-22T07:06:13.083Z,16.73
2018-08-22T07:08:42.248Z,17.37
2018-08-22T07:11:11.281Z,15.00
2018-08-22T07:13:40.417Z,16.80
2018-08-22T07:16:09.547Z,16.07
2018-08-22T07:18:38.665Z,13.33
2018-08-22T07:21:07.766Z,13.43
2018-08-22T07:23:37.265Z,13.13
2018-08-22T07:26:06.689Z,12.07
2018-08-22T07:28:35.947Z,11.40
2018-08-22T07:31:05.109Z,11.20
2018-08-22T07:33:34.261Z,10.83
2018-08-22T07:36:03.405Z,12.17
2018-08-22T07:38:32.718Z,12.17
2018-08-22T07:41:01.972Z,12.03
2018-08-22T07:43:31.109Z,11.97
2018-08-22T07:46:00.187Z,12.57
2018-08-22T07:48:29.192Z,12.27
2018-08-22T07:50:58.234Z,12.67
2018-08-22T07:53:27.376Z,12.33
2018-08-22T07:55:56.440Z,12.80
2018-08-22T07:58:25.765Z,11.97
2018-08-22T08:00:54.905Z,11.70
2018-08-22T08:03:24.178Z,12.90
2018-08-22T08:05:53.228Z,11.27
2018-08-22T08:08:22.288Z,11.53
2018-08-22T08:10:51.291Z,12.30
2018-08-22T08:13:31.057Z,11.40
2018-08-22T08:16:00.420Z,10.90
2018-08-22T08:18:29.407Z,11.10
2018-08-22T08:20:59.486Z,10.83
2018-08-22T08:23:28.672Z,10.07
2018-08-22T08:25:57.809Z,11.20
2018-08-22T08:28:26.899Z,10.90
2018-08-22T08:30:55.866Z,12.20
2018-08-22T08:33:24.981Z,11.80
2018-08-22T08:35:54.009Z,13.67
2018-08-22T08:38:23.027Z,13.03
2018-08-22T08:40:52.126Z,15.50
2018-08-22T08:43:21.331Z,14.67
2018-08-22T08:45:50.347Z,15.03
2018-08-22T08:48:19.464Z,12.63
2018-08-22T08:50:48.639Z,14.57
2018-08-22T08:53:17.725Z,15.63
2018-08-22T08:55:46.871Z,18.03
2018-08-22T08:58:16.009Z,18.30
2018-08-22T09:00:45.132Z,18.43
2018-08-22T09:03:14.196Z,16.87
2018-08-22T09:05:43.239Z,17.03
2018-08-22T09:08:12.335Z,16.97
2018-08-22T09:10:41.406Z,15.57
2018-08-22T09:13:11.851Z,16.53
2018-08-22T09:15:41.625Z,17.43
2018-08-22T09:18:10.805Z,16.07
2018-08-22T09:20:40.609Z,15.83
2018-08-22T09:23:09.772Z,15.97
2018-08-22T09:25:39.766Z,15.40
2018-08-22T09:28:08.887Z,17.33
2018-08-22T09:30:37.987Z,15.70
2018-08-22T09:33:07.205Z,15.30
2018-08-22T09:35:36.469Z,18.30
2018-08-22T09:38:05.424Z,17.30
2018-08-22T09:40:34.591Z,17.93
2018-08-22T09:43:03.673Z,17.47
2018-08-22T09:45:32.765Z,16.50
2018-08-22T09:48:01.845Z,17.20
2018-08-22T09:50:30.899Z,16.17
2018-08-22T09:52:59.897Z,16.73
2018-08-22T09:55:28.959Z,15.13
2018-08-22T09:57:58.005Z,16.00
2018-08-22T10:00:32.632Z,17.00
2018-08-22T10:03:01.813Z,17.00
2018-08-22T10:05:30.899Z,14.80
2018-08-22T10:08:00.097Z,15.03
2018-08-22T10:10:29.133Z,14.87
2018-08-22T10:12:58.191Z,16.57
2018-08-22T10:15:27.299Z,16.53
2018-08-22T10:17:56.268Z,15.43
2018-08-22T10:20:25.278Z,16.17
2018-08-22T10:22:54.387Z,17.17
2018-08-22T10:25:23.560Z,16.97
2018-08-22T10:27:52.697Z,16.20
2018-08-22T10:30:21.871Z,15.27
2018-08-22T10:32:51.188Z,13.83
2018-08-22T10:35:20.025Z,11.77
2018-08-22T10:37:49.115Z,12.37
2018-08-22T10:40:18.155Z,11.47
2018-08-22T10:42:47.253Z,12.63
2018-08-22T10:45:16.307Z,12.70
2018-08-22T10:47:45.483Z,12.10
2018-08-22T10:50:14.689Z,11.53
2018-08-22T10:52:43.775Z,10.60
2018-08-22T10:55:12.825Z,7.47
2018-08-22T10:57:42.124Z,7.70
2018-08-22T11:00:11.231Z,7.67
2018-08-22T11:02:40.283Z,8.10
2018-08-22T11:05:09.321Z,7.97
2018-08-22T11:07:38.412Z,7.13
2018-08-22T11:10:07.525Z,6.67
2018-08-22T11:12:36.620Z,10.40
2018-08-22T11:15:05.690Z,9.27
2018-08-22T11:17:34.848Z,9.47
2018-08-22T11:20:03.990Z,9.50
2018-08-22T11:22:44.226Z,10.43
2018-08-22T11:25:24.818Z,10.00
2018-08-22T11:28:05.092Z,10.57
2018-08-22T11:30:45.647Z,11.50
2018-08-22T11:33:25.985Z,11.93
2018-08-22T11:35:53.962Z,10.83
2018-08-22T11:38:22.978Z,11.47
2018-08-22T11:40:52.046Z,10.73
2018-08-22T11:43:21.161Z,11.37
2018-08-22T11:45:50.270Z,10.60
2018-08-22T11:48:19.358Z,10.10
2018-08-22T11:50:48.400Z,9.97
2018-08-22T11:53:17.398Z,10.67
2018-08-22T11:55:46.652Z,10.33
2018-08-22T11:58:15.722Z,11.03
2018-08-22T12:00:44.801Z,11.57
2018-08-22T12:03:14.094Z,10.80
2018-08-22T12:05:43.103Z,9.73
2018-08-22T12:08:12.137Z,9.57
2018-08-22T12:10:41.311Z,8.40
2018-08-22T12:13:10.286Z,12.63
2018-08-22T12:15:39.407Z,14.27
2018-08-22T12:18:08.666Z,13.73
2018-08-22T12:20:38.177Z,13.87
2018-08-22T12:23:07.366Z,12.70
2018-08-22T12:25:36.364Z,13.40
2018-08-22T12:28:05.420Z,12.97
2018-08-22T12:30:34.463Z,11.30
2018-08-22T12:34:06.744Z,11.47
2018-08-22T12:36:35.850Z,10.03
2018-08-22T12:39:07.300Z,9.20
2018-08-22T12:41:36.397Z,9.83
2018-08-22T12:44:05.501Z,9.90
2018-08-22T12:46:34.592Z,9.83
2018-08-22T12:49:03.637Z,8.80
2018-08-22T12:51:32.642Z,7.53
2018-08-22T12:54:01.687Z,7.63
2018-08-22T12:58:00.030Z,8.07
2018-08-22T13:00:29.118Z,7.03
2018-08-22T13:02:58.147Z,7.37
2018-08-22T13:05:27.293Z,6.80
2018-08-22T13:07:56.297Z,7.00
2018-08-22T13:10:25.629Z,7.07
2018-08-22T13:12:54.745Z,7.07
2018-08-22T13:15:23.834Z,7.57
2018-08-22T13:17:52.927Z,7.90
2018-08-22T13:20:21.938Z,7.40
2018-08-22T13:22:51.228Z,7.60
2018-08-22T13:25:20.369Z,7.80
2018-08-22T13:27:49.449Z,8.07
2018-08-22T13:30:18.553Z,7.20
2018-08-22T13:32:47.601Z,7.63
2018-08-22T13:35:16.720Z,8.20
2018-08-22T13:37:45.737Z,8.37
2018-08-22T13:40:14.545Z,8.53
2018-08-22T13:42:43.550Z,8.87
2018-08-22T13:45:12.688Z,8.30
2018-08-22T13:47:41.765Z,9.27
2018-08-22T13:50:10.877Z,8.50
2018-08-22T13:52:40.043Z,8.17
2018-08-22T13:55:09.124Z,8.37
2018-08-22T13:57:38.289Z,7.77
2018-08-22T14:00:08.105Z,8.60
2018-08-22T14:02:37.173Z,7.97
2018-08-22T14:05:06.289Z,7.70
2018-08-22T14:07:35.265Z,8.17
2018-08-22T14:10:04.667Z,8.23
2018-08-22T14:12:33.685Z,8.93
2018-08-22T14:15:02.700Z,8.33
2018-08-22T14:17:31.725Z,7.60
2018-08-22T14:20:00.897Z,9.60
2018-08-22T14:22:30.125Z,8.43
2018-08-22T14:24:59.180Z,9.73
2018-08-22T14:27:28.247Z,8.37
2018-08-22T14:29:57.386Z,9.00
2018-08-22T14:32:26.389Z,9.60
2018-08-22T14:34:55.549Z,8.50
2018-08-22T14:37:24.537Z,10.00
2018-08-22T14:39:53.893Z,9.67
2018-08-22T14:42:23.135Z,9.10
2018-08-22T14:44:52.244Z,8.63
2018-08-22T14:47:21.283Z,10.90
2018-08-22T14:49:50.427Z,9.07
2018-08-22T14:52:19.473Z,9.60
2018-08-22T14:54:48.620Z,9.10
2018-08-22T14:57:17.641Z,8.97
2018-08-22T14:59:46.811Z,9.23
2018-08-22T15:03:45.213Z,9.47
2018-08-22T15:06:14.222Z,9.60
2018-08-22T15:08:43.348Z,8.60
2018-08-22T15:11:12.470Z,9.53
2018-08-22T15:13:41.606Z,9.70
2018-08-22T15:16:10.608Z,9.87
2018-08-22T15:18:39.625Z,10.00
2018-08-22T15:21:08.741Z,9.80
2018-08-22T15:23:38.757Z,8.53
2018-08-22T15:26:07.825Z,10.27
2018-08-22T15:28:36.965Z,8.40
2018-08-22T15:31:06.041Z,8.77
2018-08-22T15:33:35.105Z,8.90
2018-08-22T15:36:04.217Z,9.13
2018-08-22T15:38:33.313Z,10.10
2018-08-22T15:41:02.591Z,9.60
2018-08-22T15:43:31.509Z,8.20
2018-08-22T15:46:00.629Z,7.50
2018-08-22T15:48:29.713Z,8.10
2018-08-22T15:50:59.010Z,6.50
2018-08-22T15:53:28.185Z,6.73
2018-08-22T15:55:57.253Z,7.33
2018-08-22T15:58:26.294Z,7.67
2018-08-22T16:00:55.697Z,7.03
2018-08-22T16:03:25.887Z,7.80
2018-08-22T16:05:55.927Z,7.10
2018-08-22T16:08:26.338Z,7.67
2018-08-22T16:10:55.489Z,8.10
2018-08-22T16:13:29.529Z,7.33
2018-08-22T16:16:00.988Z,6.80
2018-08-22T16:18:30.023Z,6.80
2018-08-22T16:21:00.363Z,7.27
2018-08-22T16:23:31.260Z,7.23
2018-08-22T16:26:01.521Z,7.80
2018-08-22T16:29:01.849Z,7.60
2018-08-22T16:31:40.057Z,7.43
2018-08-22T16:34:10.649Z,7.43
2018-08-22T16:36:40.051Z,7.93
2018-08-22T16:39:09.417Z,7.70
2018-08-22T16:41:38.784Z,8.00
2018-08-22T16:44:08.121Z,7.13
2018-08-22T16:46:37.158Z,7.23
2018-08-22T16:49:06.161Z,7.20
2018-08-22T16:51:35.395Z,7.53
2018-08-22T16:54:10.439Z,6.67
2018-08-22T16:56:39.946Z,6.70
2018-08-22T16:59:10.309Z,6.50
2018-08-22T17:01:42.740Z,6.33
2018-08-22T17:04:12.069Z,5.83
2018-08-22T17:06:41.406Z,5.77
2018-08-22T17:09:11.316Z,5.70
2018-08-22T17:11:40.901Z,5.50
2018-08-22T17:14:09.913Z,5.80
2018-08-22T17:16:38.955Z,5.70
2018-08-22T17:19:08.644Z,5.23
2018-08-22T17:21:37.741Z,5.63
2018-08-22T17:24:06.958Z,5.27
2018-08-22T17:26:36.648Z,5.90
2018-08-22T17:29:05.742Z,5.90
2018-08-22T17:31:34.874Z,6.37
2018-08-22T17:34:04.274Z,5.47
2018-08-22T17:36:33.736Z,5.10
2018-08-22T17:39:03.211Z,5.60
2018-08-22T17:41:32.289Z,4.80
2018-08-22T17:44:10.774Z,4.83
2018-08-22T17:46:41.307Z,5.00
2018-08-22T17:49:10.364Z,5.63
2018-08-22T17:51:54.730Z,4.57
2018-08-22T17:54:23.986Z,4.70
2018-08-22T17:57:04.622Z,4.37
2018-08-22T17:59:33.617Z,4.50
2018-08-22T18:02:02.714Z,4.63
2018-08-22T18:04:43.038Z,4.33
2018-08-22T18:07:12.064Z,4.27
2018-08-22T18:09:41.220Z,4.43
2018-08-22T18:12:10.390Z,4.20
2018-08-22T18:14:39.816Z,4.47
2018-08-22T18:17:08.924Z,4.60
2018-08-22T18:19:39.038Z,4.67
2018-08-22T18:22:08.661Z,3.97
2018-08-22T18:24:42.298Z,4.60
2018-08-22T18:27:11.338Z,4.27
2018-08-22T18:29:43.146Z,4.17
2018-08-22T18:32:12.840Z,4.33
2018-08-22T18:34:57.642Z,3.90
2018-08-22T18:37:28.136Z,4.23
2018-08-22T18:40:31.312Z,4.33
2018-08-22T18:43:05.325Z,4.30
2018-08-22T18:45:34.582Z,4.00
2018-08-22T18:48:05.121Z,4.20
2018-08-22T18:50:34.179Z,4.40
2018-08-22T18:53:03.433Z,4.60
2018-08-22T18:55:33.639Z,4.10
2018-08-22T18:58:04.074Z,4.77
2018-08-22T19:00:36.237Z,3.77
2018-08-22T19:03:05.377Z,3.90
2018-08-22T19:05:35.551Z,4.93
2018-08-22T19:08:09.842Z,3.87
2018-08-22T19:10:40.101Z,3.80
2018-08-22T19:13:14.763Z,3.53
2018-08-22T19:15:48.825Z,3.50
2018-08-22T19:18:17.994Z,3.80
2018-08-22T19:20:47.264Z,4.03
2018-08-22T19:23:16.615Z,3.60
2018-08-22T19:25:47.334Z,3.57
2018-08-22T19:28:16.433Z,3.90
2018-08-22T19:30:45.571Z,3.90
2018-08-22T19:33:24.368Z,4.00
2018-08-22T19:35:53.761Z,5.30
2018-08-22T19:38:24.010Z,3.77
2018-08-22T19:40:53.421Z,3.80
2018-08-22T19:43:22.485Z,4.10
2018-08-22T19:45:51.513Z,3.87
2018-08-22T19:48:20.529Z,3.80
2018-08-22T19:50:49.624Z,3.70
2018-08-22T19:53:18.751Z,3.80
2018-08-22T19:55:47.813Z,3.80
2018-08-22T19:58:21.116Z,3.70
2018-08-22T20:00:50.518Z,3.67
2018-08-22T20:03:23.965Z,3.80
2018-08-22T20:05:54.549Z,4.37
2018-08-22T20:08:29.044Z,4.10
2018-08-22T20:10:58.413Z,3.67
2018-08-22T20:13:37.857Z,3.93
2018-08-22T20:16:06.889Z,3.93
2018-08-22T20:18:35.958Z,3.90
2018-08-22T20:21:05.179Z,4.00
2018-08-22T20:23:34.312Z,4.00
2018-08-22T20:26:03.391Z,4.30
2018-08-22T20:28:33.733Z,3.77
2018-08-22T20:31:07.011Z,4.20
2018-08-22T20:33:37.272Z,4.10
2018-08-22T20:36:06.331Z,4.20
2018-08-22T20:38:35.387Z,4.10
2018-08-22T20:41:08.902Z,4.23
2018-08-22T20:43:38.597Z,3.63
2018-08-22T20:46:07.691Z,4.00
2018-08-22T20:48:37.168Z,3.57
2018-08-22T20:51:06.488Z,3.50
2018-08-22T20:53:35.653Z,4.07
2018-08-22T20:56:04.773Z,3.80
2018-08-22T20:58:33.785Z,3.87
2018-08-22T21:01:02.962Z,3.73
2018-08-22T21:03:31.989Z,3.90
2018-08-22T21:06:01.085Z,3.77
2018-08-22T21:08:30.276Z,4.43
2018-08-22T21:10:59.479Z,4.00
2018-08-22T21:13:29.191Z,4.03
2018-08-22T21:15:59.296Z,4.17
2018-08-22T21:18:29.110Z,3.90
2018-08-22T21:20:58.231Z,3.83
2018-08-22T21:23:27.339Z,4.13
2018-08-22T21:25:56.438Z,4.17
2018-08-22T21:28:32.776Z,3.90
2018-08-22T21:31:02.197Z,4.00
2018-08-22T21:33:31.666Z,3.47
2018-08-22T21:36:00.774Z,3.97
2018-08-22T21:38:29.980Z,3.30
2018-08-22T21:40:58.989Z,3.20
2018-08-22T21:43:28.167Z,3.43
2018-08-22T21:45:57.138Z,3.67
2018-08-22T21:48:26.864Z,4.40
2018-08-22T21:50:55.981Z,3.90
2018-08-22T21:53:25.263Z,3.93
2018-08-22T21:55:54.257Z,4.00
2018-08-22T21:58:23.233Z,3.80
2018-08-22T22:00:52.386Z,3.70
2018-08-22T22:03:26.756Z,4.30
2018-08-22T22:06:02.534Z,4.20
2018-08-22T22:08:31.677Z,4.30
2018-08-22T22:11:03.129Z,3.90
2018-08-22T22:13:32.218Z,3.97
2018-08-22T22:16:03.228Z,4.17
2018-08-22T22:18:33.526Z,4.47
2018-08-22T22:21:11.309Z,4.07
2018-08-22T22:23:49.295Z,4.50
2018-08-22T22:26:19.304Z,4.43
2018-08-22T22:28:48.316Z,4.30
2018-08-22T22:31:18.145Z,4.50
2018-08-22T22:33:57.951Z,4.60
2018-08-22T22:36:26.989Z,4.57
2018-08-22T22:38:56.263Z,5.50
2018-08-22T22:41:27.631Z,4.90
2018-08-22T22:43:56.731Z,4.90
2018-08-22T22:46:25.809Z,5.30
2018-08-22T22:48:54.865Z,5.30
2018-08-22T22:51:24.023Z,5.13
2018-08-22T22:53:53.137Z,5.13
2018-08-22T22:56:22.417Z,5.20
2018-08-22T22:58:51.500Z,5.00
2018-08-22T23:01:20.525Z,5.03
2018-08-22T23:03:49.605Z,5.00
2018-08-22T23:06:18.647Z,5.30
2018-08-22T23:08:47.625Z,5.27
2018-08-22T23:11:16.636Z,5.30
2018-08-22T23:13:45.672Z,5.53
2018-08-22T23:16:15.349Z,5.40
2018-08-22T23:18:44.436Z,5.07
2018-08-22T23:21:13.582Z,6.10
2018-08-22T23:23:42.594Z,5.53
2018-08-22T23:26:18.720Z,5.60
2018-08-22T23:28:47.865Z,6.33
2018-08-22T23:31:18.638Z,6.90
2018-08-22T23:33:47.726Z,6.10
2018-08-22T23:36:16.777Z,6.90
2018-08-22T23:38:45.865Z,6.93
2018-08-22T23:41:14.874Z,6.80
2018-08-22T23:43:49.270Z,6.60
2018-08-22T23:46:18.448Z,7.17
2018-08-22T23:48:53.382Z,7.17
2018-08-22T23:51:22.724Z,7.13
2018-08-22T23:53:51.774Z,7.83
2018-08-22T23:56:28.366Z,7.80
2018-08-22T23:58:58.547Z,7.87
